Time;durP1;ratioP1;P1;durP2;ratioP2;P2;SDS_P1;SDS_P2;PMS_P1;PMS_P2;Temp;Humidity;BMP_temperature;BMP_pressure;BME280_temperature;BME280_humidity;BME280_pressure;Samples;Min_cycle;Max_cycle;Signal;HPM_P1;HPM_P2
2021/11/13 00:02:41;;;;;;;171.05;77.05;;;1.50;99.90;;;;;;6244197;23;20122;-84
2021/11/13 00:05:31;;;;;;;211.63;87.50;;;1.50;99.90;;;;;;6244765;23;20078;-86
2021/11/13 00:08:18;;;;;;;202.05;84.75;;;1.40;99.90;;;;;;6245029;23;20020;-87
2021/11/13 00:11:06;;;;;;;162.02;73.85;;;1.30;99.90;;;;;;6245396;23;20122;-87
2021/11/13 00:13:55;;;;;;;158.90;71.45;;;1.30;99.90;;;;;;6244202;23;20129;-87
2021/11/13 00:16:44;;;;;;;154.80;71.07;;;1.30;99.90;;;;;;6243893;23;20024;-86
2021/11/13 00:19:32;;;;;;;137.90;66.47;;;1.30;99.90;;;;;;6246265;23;20423;-86
2021/11/13 00:22:19;;;;;;;123.65;58.30;;;1.20;99.90;;;;;;6224850;23;20082;-87
2021/11/13 00:25:08;;;;;;;134.57;61.15;;;1.20;99.90;;;;;;6244450;23;20090;-86
2021/11/13 00:27:55;;;;;;;129.50;56.53;;;1.20;99.90;;;;;;6223578;23;20086;-85
2021/11/13 00:30:43;;;;;;;105.80;50.63;;;1.20;99.90;;;;;;6242957;23;20119;-87
2021/11/13 00:33:30;;;;;;;106.60;48.75;;;1.30;99.90;;;;;;6222348;23;20051;-87
2021/11/13 00:36:18;;;;;;;105.95;48.75;;;1.50;99.90;;;;;;6243883;23;20023;-87
2021/11/13 00:39:05;;;;;;;103.50;48.92;;;1.70;99.90;;;;;;6224342;23;20055;-88
2021/11/13 00:41:52;;;;;;;102.13;45.50;;;1.70;99.90;;;;;;6244887;23;20032;-86
2021/11/13 00:44:40;;;;;;;108.30;49.92;;;1.80;99.90;;;;;;6244320;23;20047;-87
2021/11/13 00:47:28;;;;;;;115.93;56.63;;;1.80;99.90;;;;;;6245603;23;20037;-87
2021/11/13 00:50:15;;;;;;;122.38;56.50;;;1.70;99.90;;;;;;6245207;23;20078;-87
2021/11/13 00:53:02;;;;;;;120.75;56.28;;;1.60;99.90;;;;;;6244210;23;20100;-87
2021/11/13 00:55:52;;;;;;;117.28;55.60;;;1.60;99.90;;;;;;6244769;23;20028;-87
2021/11/13 00:58:39;;;;;;;99.85;50.40;;;1.40;99.90;;;;;;6243946;23;20032;-87
2021/11/13 01:01:26;;;;;;;101.60;49.08;;;1.40;99.90;;;;;;6244167;23;20086;-86
2021/11/13 01:04:14;;;;;;;84.78;42.50;;;1.20;99.90;;;;;;6243140;23;20043;-87
2021/11/13 01:07:02;;;;;;;98.55;44.85;;;1.10;99.90;;;;;;6244844;23;20133;-85
2021/11/13 01:09:49;;;;;;;108.22;53.30;;;1.10;99.90;;;;;;6244928;23;20028;-87
2021/11/13 01:12:39;;;;;;;102.28;53.72;;;1.10;99.90;;;;;;6244397;23;20028;-85
2021/11/13 01:15:26;;;;;;;104.65;54.25;;;0.90;99.90;;;;;;6243864;23;20042;-86
2021/11/13 01:18:14;;;;;;;100.60;52.70;;;0.70;99.90;;;;;;6243764;23;20027;-87
2021/11/13 01:21:01;;;;;;;93.13;49.33;;;0.50;99.90;;;;;;6243936;23;20054;-85
2021/11/13 01:23:49;;;;;;;92.38;50.90;;;0.30;99.90;;;;;;6245060;23;20146;-87
2021/11/13 01:26:37;;;;;;;86.80;44.88;;;0.20;99.90;;;;;;6244286;23;20125;-86
2021/11/13 01:29:27;;;;;;;92.43;49.83;;;0.10;99.90;;;;;;6245240;23;20027;-86
2021/11/13 01:32:15;;;;;;;89.35;49.33;;;0.00;99.90;;;;;;6245360;23;20032;-87
2021/11/13 01:35:05;;;;;;;89.97;47.38;;;-0.20;99.90;;;;;;6244481;23;20107;-85
2021/11/13 01:37:53;;;;;;;88.95;47.67;;;-0.20;99.90;;;;;;6223770;23;20254;-86
2021/11/13 01:40:42;;;;;;;106.57;50.78;;;-0.20;99.90;;;;;;6244484;23;20105;-87
2021/11/13 01:43:35;;;;;;;100.88;48.72;;;-0.10;99.90;;;;;;6243520;23;20020;-86
2021/11/13 01:46:25;;;;;;;101.72;49.60;;;0.00;99.90;;;;;;6243210;23;20109;-86
2021/11/13 01:49:12;;;;;;;97.88;51.22;;;0.00;99.90;;;;;;6243169;23;20359;-86
2021/11/13 01:51:59;;;;;;;90.32;46.53;;;0.00;99.90;;;;;;6222537;23;20051;-86
2021/11/13 01:54:47;;;;;;;101.75;53.25;;;0.00;99.90;;;;;;6243877;23;20032;-85
2021/11/13 01:57:44;;;;;;;106.93;53.47;;;0.00;99.90;;;;;;6244080;23;20028;-87
2021/11/13 02:00:36;;;;;;;98.95;52.65;;;-0.10;99.90;;;;;;6244282;23;20024;-87
2021/11/13 02:03:27;;;;;;;106.75;54.65;;;-0.10;99.90;;;;;;6222670;23;20125;-87
2021/11/13 02:06:18;;;;;;;113.40;56.13;;;-0.10;99.90;;;;;;6243966;23;20146;-86
2021/11/13 02:09:08;;;;;;;101.97;52.95;;;-0.10;99.90;;;;;;6243952;23;20020;-87
2021/11/13 02:11:55;;;;;;;100.65;54.10;;;-0.10;99.90;;;;;;6243375;23;20415;-87
2021/11/13 02:14:42;;;;;;;109.00;54.03;;;0.00;99.90;;;;;;6243852;23;20032;-86
2021/11/13 02:17:32;;;;;;;108.68;51.22;;;0.10;99.90;;;;;;6244248;23;20027;-87
2021/11/13 02:20:38;;;;;;;109.20;54.13;;;0.00;99.90;;;;;;6225001;22;20072;-87
2021/11/13 02:23:26;;;;;;;102.32;50.40;;;0.10;99.90;;;;;;6244538;23;20062;-87
2021/11/13 02:26:15;;;;;;;106.10;49.15;;;0.10;99.90;;;;;;6244314;23;20024;-87
2021/11/13 02:29:04;;;;;;;103.10;52.72;;;0.00;99.90;;;;;;6243890;23;20103;-86
2021/11/13 02:31:55;;;;;;;109.25;52.05;;;0.10;99.90;;;;;;6223137;23;20055;-87
2021/11/13 02:34:43;;;;;;;115.60;52.15;;;0.00;99.90;;;;;;6242605;23;20119;-86
2021/11/13 02:37:31;;;;;;;102.03;51.78;;;0.10;99.90;;;;;;6243252;23;20113;-85
2021/11/13 02:40:18;;;;;;;106.43;52.35;;;0.10;99.90;;;;;;6244156;23;20066;-86
2021/11/13 02:43:06;;;;;;;105.57;52.08;;;0.10;99.90;;;;;;6224925;22;20052;-86
2021/11/13 02:45:55;;;;;;;113.95;53.08;;;0.10;99.90;;;;;;6241944;23;20086;-86
2021/11/13 02:48:43;;;;;;;106.53;49.80;;;0.00;99.90;;;;;;6243644;23;20078;-86
2021/11/13 02:51:30;;;;;;;100.47;49.42;;;0.00;99.90;;;;;;6243524;23;20032;-84
2021/11/13 02:54:19;;;;;;;102.93;50.88;;;0.00;99.90;;;;;;6245517;22;20119;-85
2021/11/13 02:57:09;;;;;;;114.22;53.60;;;0.00;99.90;;;;;;6244499;23;20169;-86
2021/11/13 02:59:56;;;;;;;107.78;52.47;;;-0.10;99.90;;;;;;6243263;23;20158;-86
2021/11/13 03:02:48;;;;;;;98.85;48.65;;;-0.20;99.90;;;;;;6242220;23;20031;-87
2021/11/13 03:05:44;;;;;;;99.45;49.70;;;-0.30;99.90;;;;;;6242494;23;20020;-86
2021/11/13 03:08:32;;;;;;;103.32;49.88;;;-0.30;99.90;;;;;;6243752;23;20431;-86
2021/11/13 03:11:20;;;;;;;106.05;51.08;;;-0.40;99.90;;;;;;6244219;23;20312;-87
2021/11/13 03:14:07;;;;;;;118.35;52.75;;;-0.40;99.90;;;;;;6243637;23;20031;-83
2021/11/13 03:17:02;;;;;;;116.75;54.63;;;-0.50;99.90;;;;;;6223155;23;20231;-86
2021/11/13 03:19:49;;;;;;;114.05;53.78;;;-0.60;99.90;;;;;;6242782;23;20027;-86
2021/11/13 03:22:39;;;;;;;114.05;53.10;;;-0.60;99.90;;;;;;6242270;23;20036;-86
2021/11/13 03:25:36;;;;;;;109.45;52.45;;;-0.60;99.90;;;;;;6243073;23;20028;-86
2021/11/13 03:28:26;;;;;;;123.25;56.08;;;-0.70;99.90;;;;;;6224857;23;20020;-85
2021/11/13 03:31:15;;;;;;;112.20;55.33;;;-0.60;99.90;;;;;;6245528;23;20040;-85
2021/11/13 03:34:03;;;;;;;108.00;53.10;;;-0.70;99.90;;;;;;6225296;23;20078;-85
2021/11/13 03:36:50;;;;;;;108.47;54.10;;;-0.90;99.90;;;;;;6249109;23;20020;-86
2021/11/13 03:39:37;;;;;;;107.30;53.05;;;-1.00;99.90;;;;;;6224634;23;20028;-84
2021/11/13 03:42:31;;;;;;;111.57;53.20;;;-1.10;99.90;;;;;;6245678;23;20111;-86
2021/11/13 03:45:18;;;;;;;103.45;51.75;;;-1.20;99.90;;;;;;6224178;23;20090;-86
2021/11/13 03:48:08;;;;;;;111.05;53.17;;;-1.30;99.90;;;;;;6244566;23;20109;-87
2021/11/13 03:50:56;;;;;;;112.93;53.53;;;-1.20;99.90;;;;;;6244977;23;20170;-86
2021/11/13 03:53:43;;;;;;;112.47;55.63;;;-1.10;99.90;;;;;;6244766;23;20109;-84
2021/11/13 03:56:30;;;;;;;117.32;56.88;;;-1.00;99.90;;;;;;6224953;23;20024;-86
2021/11/13 03:59:17;;;;;;;129.70;59.80;;;-0.90;99.90;;;;;;6249374;23;20089;-87
2021/11/13 04:02:10;;;;;;;119.65;56.67;;;-0.80;99.90;;;;;;6244907;23;20039;-85
2021/11/13 04:04:57;;;;;;;;;;;-0.70;99.90;;;;;;6245187;23;20025;-86
2021/11/13 04:07:45;;;;;;;112.90;53.35;;;-0.60;99.90;;;;;;6224089;23;19970;-86
2021/11/13 04:10:33;;;;;;;118.85;55.35;;;-0.50;99.90;;;;;;6243978;23;20077;-87
2021/11/13 04:13:20;;;;;;;121.25;57.58;;;-0.40;99.90;;;;;;6253491;22;20020;-86
2021/11/13 04:16:07;;;;;;;115.95;55.38;;;-0.30;99.90;;;;;;6245237;23;20446;-86
2021/11/13 04:18:57;;;;;;;115.85;55.83;;;-0.30;99.90;;;;;;6245989;23;20020;-86
2021/11/13 04:21:44;;;;;;;114.45;55.28;;;-0.30;99.90;;;;;;6247993;23;20028;-85
2021/11/13 04:24:34;;;;;;;116.35;54.65;;;-0.30;99.90;;;;;;6222036;23;20028;-86
2021/11/13 04:27:23;;;;;;;111.18;53.83;;;-0.20;99.90;;;;;;6246510;23;20020;-86
2021/11/13 04:30:13;;;;;;;119.68;56.03;;;-0.30;99.90;;;;;;6244419;23;20446;-86
2021/11/13 04:33:00;;;;;;;115.63;54.20;;;-0.40;99.90;;;;;;6244355;23;20024;-85
2021/11/13 04:36:03;;;;;;;97.80;50.28;;;-0.40;99.90;;;;;;6223767;23;20020;-86
2021/11/13 04:38:51;;;;;;;;;;;-0.40;99.90;;;;;;6245279;23;20020;-86
2021/11/13 04:41:40;;;;;;;103.80;49.55;;;-0.40;99.90;;;;;;6244935;23;19919;-85
2021/11/13 04:44:29;;;;;;;95.63;50.05;;;-0.40;99.90;;;;;;6245171;23;20111;-89
2021/11/13 04:47:18;;;;;;;110.18;52.00;;;-0.30;99.90;;;;;;6244929;23;20028;-87
2021/11/13 04:50:06;;;;;;;101.15;48.97;;;-0.20;99.90;;;;;;6244713;23;20383;-87
2021/11/13 04:52:54;;;;;;;99.30;51.13;;;-0.10;99.90;;;;;;6245603;23;20043;-86
2021/11/13 04:55:44;;;;;;;96.15;50.35;;;-0.10;99.90;;;;;;6224403;23;20089;-87
2021/11/13 04:58:32;;;;;;;93.32;49.72;;;-0.10;99.90;;;;;;6244706;23;20048;-87
2021/11/13 05:01:44;;;;;;;94.68;48.40;;;0.00;99.90;;;;;;6244256;23;20028;-86
2021/11/13 05:04:31;;;;;;;100.88;52.53;;;0.10;99.90;;;;;;6244948;23;20110;-87
2021/11/13 05:07:18;;;;;;;99.60;49.88;;;0.10;99.90;;;;;;6244348;23;20051;-88
2021/11/13 05:10:06;;;;;;;99.75;51.78;;;0.20;99.90;;;;;;6243147;23;20044;-85
2021/11/13 05:12:54;;;;;;;97.97;49.63;;;0.30;99.90;;;;;;6245276;23;20020;-86
2021/11/13 05:15:43;;;;;;;90.53;49.30;;;0.30;99.90;;;;;;6244966;23;20115;-87
2021/11/13 05:18:30;;;;;;;90.63;48.50;;;0.40;99.90;;;;;;6245214;23;20020;-86
2021/11/13 05:21:17;;;;;;;85.07;47.50;;;0.40;99.90;;;;;;6245730;23;20408;-86
2021/11/13 05:24:07;;;;;;;84.28;45.90;;;0.40;99.90;;;;;;6247133;23;20024;-84
2021/11/13 05:26:55;;;;;;;80.78;44.85;;;0.50;99.90;;;;;;6225750;23;20395;-87
2021/11/13 05:29:44;;;;;;;79.28;45.67;;;0.40;99.90;;;;;;6247669;23;20096;-87
2021/11/13 05:32:33;;;;;;;78.68;45.20;;;0.30;99.90;;;;;;6253391;23;20051;-85
2021/11/13 05:35:24;;;;;;;84.35;45.00;;;0.30;99.90;;;;;;6258072;23;20063;-86
2021/11/13 05:38:11;;;;;;;80.63;44.08;;;0.20;99.90;;;;;;6236771;23;20032;-85
2021/11/13 05:40:58;;;;;;;75.22;43.03;;;0.20;99.90;;;;;;6254073;23;20085;-87
2021/11/13 05:43:45;;;;;;;78.78;43.20;;;0.20;99.90;;;;;;6246114;23;20042;-85
2021/11/13 05:46:35;;;;;;;73.90;42.20;;;0.10;99.90;;;;;;6246414;23;20034;-86
2021/11/13 05:49:25;;;;;;;74.82;43.13;;;0.20;99.90;;;;;;6244447;23;20028;-85
2021/11/13 05:52:12;;;;;;;73.43;42.55;;;0.30;99.90;;;;;;6245477;23;20081;-85
2021/11/13 05:54:59;;;;;;;75.93;42.72;;;0.30;99.90;;;;;;6245396;23;20105;-85
2021/11/13 05:57:49;;;;;;;69.88;42.22;;;0.30;99.90;;;;;;6245791;23;20125;-86
2021/11/13 06:00:36;;;;;;;74.78;41.25;;;0.40;99.90;;;;;;6242821;23;20024;-86
2021/11/13 06:03:23;;;;;;;69.57;40.50;;;0.40;99.90;;;;;;6244712;23;20040;-86
2021/11/13 06:06:10;;;;;;;69.18;41.92;;;0.40;99.90;;;;;;6243635;23;20095;-86
2021/11/13 06:08:57;;;;;;;71.50;41.63;;;0.50;99.90;;;;;;6245023;23;20027;-85
2021/11/13 06:11:45;;;;;;;75.88;43.25;;;0.50;99.90;;;;;;6244732;23;20024;-85
2021/11/13 06:14:32;;;;;;;74.88;44.75;;;0.60;99.90;;;;;;6245254;23;20032;-87
2021/11/13 06:17:19;;;;;;;77.10;42.85;;;0.60;99.90;;;;;;6242790;23;20072;-84
2021/11/13 06:20:08;;;;;;;75.55;42.55;;;0.70;99.90;;;;;;6245015;23;20028;-85
2021/11/13 06:22:55;;;;;;;74.10;40.95;;;0.70;99.90;;;;;;6243211;23;20028;-86
2021/11/13 06:25:44;;;;;;;74.30;42.35;;;0.80;99.90;;;;;;6243646;23;20024;-86
2021/11/13 06:28:33;;;;;;;75.20;41.08;;;0.90;99.90;;;;;;6222237;23;20396;-86
2021/11/13 06:31:22;;;;;;;81.00;42.65;;;0.90;99.90;;;;;;6245912;23;20086;-84
2021/11/13 06:34:09;;;;;;;74.63;39.67;;;0.90;99.90;;;;;;6245503;23;20134;-85
2021/11/13 06:36:57;;;;;;;70.63;38.63;;;1.00;99.90;;;;;;6244086;23;20495;-86
2021/11/13 06:39:44;;;;;;;64.63;38.38;;;1.10;99.90;;;;;;6224747;23;20368;-85
2021/11/13 06:42:35;;;;;;;69.32;39.67;;;1.20;99.90;;;;;;6223768;23;20024;-86
2021/11/13 06:45:23;;;;;;;71.50;40.60;;;1.20;99.90;;;;;;6246606;22;20035;-86
2021/11/13 06:48:10;;;;;;;71.68;40.05;;;1.30;99.90;;;;;;6244236;23;20028;-86
2021/11/13 06:50:57;;;;;;;66.78;37.97;;;1.40;99.90;;;;;;6244610;23;20020;-86
2021/11/13 06:53:45;;;;;;;65.03;39.13;;;1.40;99.90;;;;;;6244139;23;20024;-83
2021/11/13 07:17:31;;;;;;;94.88;53.78;;;1.70;99.90;;;;;;6152840;23;20017;-87
2021/11/13 07:20:20;;;;;;;104.45;58.13;;;1.70;99.90;;;;;;6132850;23;20021;-87
2021/11/13 07:23:12;;;;;;;109.32;59.50;;;1.70;99.90;;;;;;6222697;23;20430;-87
2021/11/13 07:26:14;;;;;;;92.63;51.75;;;1.70;99.90;;;;;;6225686;23;20020;-87
2021/11/13 07:29:16;;;;;;;113.85;61.13;;;1.80;99.90;;;;;;6243752;23;20024;-87
2021/11/13 07:33:26;;;;;;;;;;;;;;;;;;;;;
2021/11/13 07:40:37;;;;;;;112.95;58.67;;;1.90;99.90;;;;;;6009321;23;20025;-86
2021/11/13 07:44:19;;;;;;;105.40;57.92;;;2.00;99.90;;;;;;6008655;23;20043;-86
2021/11/13 07:56:57;;;;;;;;;;;;;;;;;;;;;
2021/11/13 08:00:55;;;;;;;64.72;40.15;;;2.30;99.90;;;;;;5872889;24;20116;-86
2021/11/13 08:03:51;;;;;;;61.45;38.22;;;2.50;99.90;;;;;;5952349;24;20020;-86
2021/11/13 08:07:15;;;;;;;69.50;40.97;;;2.60;99.90;;;;;;6019741;23;20143;-86
2021/11/13 08:10:58;;;;;;;59.17;38.60;;;2.90;99.90;;;;;;5984516;24;20028;-86
2021/11/13 08:15:06;;;;;;;61.13;38.55;;;3.10;99.90;;;;;;5977316;24;20076;-86
2021/11/13 08:30:17;;;;;;;46.40;32.97;;;4.20;99.90;;;;;;5909634;24;20351;-85
2021/11/13 08:33:07;;;;;;;44.33;32.33;;;4.60;99.90;;;;;;5926569;24;20025;-87
2021/11/13 08:44:04;;;;;;;17.75;9.98;;;5.50;99.90;;;;;;6046691;23;20130;-88
2021/11/13 08:46:59;;;;;;;14.07;7.65;;;5.90;99.90;;;;;;6041533;23;20027;-88
2021/11/13 08:49:48;;;;;;;12.57;7.88;;;6.10;99.90;;;;;;6100591;23;20437;-87
2021/11/13 08:52:36;;;;;;;11.48;7.07;;;6.40;99.90;;;;;;6100053;23;20034;-87
2021/11/13 08:55:27;;;;;;;9.88;7.07;;;6.70;99.90;;;;;;6102272;23;20078;-87
2021/11/13 08:58:17;;;;;;;13.48;5.97;;;7.00;99.90;;;;;;6100927;23;20081;-88
2021/11/13 09:01:06;;;;;;;9.60;6.03;;;7.10;99.90;;;;;;6105509;23;20034;-87
2021/11/13 09:03:57;;;;;;;8.52;5.88;;;7.20;99.90;;;;;;6106694;23;20132;-87
2021/11/13 09:06:44;;;;;;;9.00;5.18;;;7.30;99.90;;;;;;6106016;23;20023;-89
2021/11/13 09:09:35;;;;;;;7.35;5.07;;;7.40;99.90;;;;;;6116508;23;20021;-87
2021/11/13 09:12:27;;;;;;;7.63;5.15;;;7.40;99.90;;;;;;6162021;23;20125;-88
2021/11/13 09:15:18;;;;;;;9.70;5.95;;;7.40;99.90;;;;;;6162415;23;20036;-90
2021/11/13 09:18:06;;;;;;;8.43;5.57;;;7.60;99.90;;;;;;6152683;23;20108;-86
2021/11/13 09:20:54;;;;;;;9.75;6.20;;;7.70;99.90;;;;;;6153760;23;20076;-88
2021/11/13 09:23:41;;;;;;;14.55;5.93;;;7.90;99.90;;;;;;6134386;23;20067;-87
2021/11/13 09:26:29;;;;;;;7.18;5.00;;;8.80;99.90;;;;;;6155571;23;20025;-90
2021/11/13 09:29:16;;;;;;;7.70;5.50;;;10.60;99.90;;;;;;6157825;23;20034;-87
2021/11/13 09:32:09;;;;;;;9.20;6.07;;;12.20;90.30;;;;;;6156955;23;20064;-88
2021/11/13 09:34:59;;;;;;;;;;;12.60;82.50;;;;;;6158852;23;20033;-86
2021/11/13 09:37:47;;;;;;;8.98;7.05;;;12.00;82.50;;;;;;6137100;23;20275;-90
2021/11/13 09:40:35;;;;;;;13.07;7.38;;;11.50;87.30;;;;;;6134927;23;20033;-89
2021/11/13 09:43:24;;;;;;;11.88;9.30;;;11.40;90.20;;;;;;6154472;23;20100;-89
2021/11/13 09:46:12;;;;;;;11.30;7.53;;;11.70;91.80;;;;;;6152464;23;20029;-87
2021/11/13 09:49:02;;;;;;;8.13;6.03;;;12.60;86.10;;;;;;6155374;23;20415;-88
2021/11/13 09:51:55;;;;;;;6.68;5.32;;;13.10;80.60;;;;;;6153428;23;20032;-88
2021/11/13 09:54:49;;;;;;;7.45;5.57;;;13.10;78.00;;;;;;6153722;23;20026;-88
2021/11/13 09:57:40;;;;;;;7.20;5.20;;;13.00;79.90;;;;;;6156210;23;20026;-88
2021/11/13 10:00:31;;;;;;;11.80;6.63;;;12.80;80.10;;;;;;6154836;23;20040;-86
2021/11/13 10:03:21;;;;;;;10.18;5.60;;;12.30;83.70;;;;;;6153134;23;20121;-87
2021/11/13 10:06:13;;;;;;;10.32;6.80;;;11.60;84.20;;;;;;6133013;23;20325;-89
2021/11/13 10:09:00;;;;;;;9.18;6.50;;;11.20;90.00;;;;;;6153204;23;20124;-88
2021/11/13 10:11:53;;;;;;;10.75;7.10;;;10.90;90.40;;;;;;6153842;23;20076;-87
2021/11/13 10:14:42;;;;;;;9.35;6.35;;;10.60;91.00;;;;;;6151475;23;20165;-87
2021/11/13 10:17:30;;;;;;;10.68;6.43;;;10.40;90.60;;;;;;6151201;23;20045;-91
2021/11/13 10:20:22;;;;;;;7.63;6.40;;;10.20;92.00;;;;;;6152203;23;20034;-87
2021/11/13 10:23:16;;;;;;;11.07;7.18;;;10.00;92.40;;;;;;6150348;23;20045;-87
2021/11/13 10:26:28;;;;;;;9.98;7.32;;;9.90;93.10;;;;;;6150658;23;20029;-87
2021/11/13 10:29:17;;;;;;;11.63;6.70;;;10.00;93.90;;;;;;6153716;23;20025;-88
2021/11/13 10:32:10;;;;;;;10.60;6.50;;;10.10;93.70;;;;;;6155537;23;20029;-89
2021/11/13 10:35:01;;;;;;;10.82;5.30;;;10.30;93.20;;;;;;6154081;23;20021;-86
2021/11/13 10:37:49;;;;;;;10.32;6.22;;;10.40;92.90;;;;;;6155607;23;20033;-88
2021/11/13 10:40:36;;;;;;;9.60;5.43;;;10.70;92.70;;;;;;6152390;23;20029;-86
2021/11/13 10:43:34;;;;;;;9.50;5.32;;;11.00;92.60;;;;;;6153255;23;20025;-87
2021/11/13 10:46:28;;;;;;;11.10;4.90;;;11.20;92.30;;;;;;6153754;23;20203;-86
2021/11/13 10:49:17;;;;;;;6.60;4.82;;;11.40;92.20;;;;;;6151791;23;20096;-87
2021/11/13 10:52:08;;;;;;;7.32;4.80;;;11.40;92.00;;;;;;6154885;23;20315;-87
2021/11/13 10:55:02;;;;;;;7.43;4.90;;;11.60;92.00;;;;;;6155142;23;20101;-88
2021/11/13 10:58:26;;;;;;;8.43;5.15;;;11.40;92.30;;;;;;6153464;23;20028;-87
2021/11/13 11:01:22;;;;;;;11.20;5.55;;;11.20;93.10;;;;;;6152730;23;20478;-89
2021/11/13 11:04:25;;;;;;;10.23;5.50;;;11.00;93.60;;;;;;6152304;23;20425;-87
2021/11/13 11:07:16;;;;;;;7.35;6.00;;;10.90;94.20;;;;;;6153429;23;20084;-92
2021/11/13 11:10:11;;;;;;;14.80;6.30;;;10.60;95.50;;;;;;6150824;23;20033;-92
2021/11/13 11:13:04;;;;;;;13.38;5.93;;;10.40;96.60;;;;;;6154013;23;20512;-91
2021/11/13 11:15:56;;;;;;;11.93;7.03;;;10.30;96.90;;;;;;6152876;23;20036;-89
2021/11/13 11:18:53;;;;;;;9.43;5.80;;;10.30;98.50;;;;;;6150924;23;20036;-87
2021/11/13 11:22:12;;;;;;;9.45;5.95;;;10.30;98.30;;;;;;6154532;23;20241;-87
2021/11/13 11:25:09;;;;;;;6.85;5.20;;;10.30;98.70;;;;;;6154928;23;20053;-90
2021/11/13 11:27:57;;;;;;;9.20;6.47;;;10.10;99.50;;;;;;6157942;23;20325;-88
2021/11/13 11:30:49;;;;;;;9.30;6.25;;;10.00;99.90;;;;;;6155791;23;20025;-89
2021/11/13 11:33:38;;;;;;;10.77;6.35;;;10.00;99.90;;;;;;6153220;23;20021;-87
2021/11/13 11:36:32;;;;;;;8.90;5.72;;;9.90;99.90;;;;;;6150349;23;20033;-90
2021/11/13 11:39:19;;;;;;;13.10;6.65;;;9.90;99.90;;;;;;6153105;23;20026;-89
2021/11/13 11:42:08;;;;;;;12.25;6.80;;;9.80;99.90;;;;;;6152217;23;20025;-88
2021/11/13 11:45:00;;;;;;;18.30;8.07;;;9.70;99.90;;;;;;6153232;23;20197;-87
2021/11/13 11:47:54;;;;;;;12.45;6.53;;;9.60;99.90;;;;;;6151822;23;20037;-87
2021/11/13 11:50:43;;;;;;;16.00;6.28;;;9.50;99.90;;;;;;6155654;23;20317;-88
2021/11/13 11:53:31;;;;;;;12.35;5.78;;;9.40;99.90;;;;;;6154530;23;20018;-89
2021/11/13 11:56:19;;;;;;;12.18;6.35;;;9.40;99.90;;;;;;6154747;23;20433;-89
2021/11/13 11:59:07;;;;;;;14.35;6.45;;;9.50;99.90;;;;;;6154026;23;20025;-87
2021/11/13 12:02:09;;;;;;;8.20;6.10;;;9.50;99.90;;;;;;6155508;23;20142;-89
2021/11/13 12:05:09;;;;;;;25.70;6.90;;;9.50;99.90;;;;;;6152510;23;20037;-86
2021/11/13 12:07:58;;;;;;;9.07;6.45;;;9.50;99.90;;;;;;6152814;23;20037;-89
2021/11/13 12:10:48;;;;;;;15.70;7.28;;;9.50;99.90;;;;;;6213738;23;20325;-88
2021/11/13 12:13:36;;;;;;;9.70;7.22;;;9.40;99.90;;;;;;6225046;23;20024;-87
2021/11/13 12:16:26;;;;;;;13.88;7.28;;;9.40;99.90;;;;;;6245184;23;20051;-87
2021/11/13 12:19:15;;;;;;;9.68;7.50;;;9.40;99.90;;;;;;6245702;23;20059;-88
2021/11/13 12:22:04;;;;;;;23.45;8.90;;;9.40;99.90;;;;;;6244719;23;20628;-85
2021/11/13 12:25:44;;;;;;;14.23;7.00;;;9.50;99.90;;;;;;6246448;23;20395;-87
2021/11/13 12:28:49;;;;;;;11.82;6.50;;;9.50;99.90;;;;;;6197605;23;20035;-87
2021/11/13 12:31:46;;;;;;;9.73;6.95;;;9.50;99.90;;;;;;6243952;23;20104;-85
2021/11/13 12:34:34;;;;;;;8.27;6.57;;;9.50;99.90;;;;;;6245118;23;20089;-86
2021/11/13 12:37:24;;;;;;;11.57;6.53;;;9.60;99.90;;;;;;6223300;23;20024;-89
2021/11/13 12:40:14;;;;;;;10.63;7.03;;;9.60;99.90;;;;;;6249677;23;20033;-87
2021/11/13 12:43:06;;;;;;;11.75;7.25;;;9.70;99.90;;;;;;6223184;23;20070;-86
2021/11/13 12:45:56;;;;;;;12.93;7.05;;;9.70;99.90;;;;;;6224092;23;20312;-88
2021/11/13 12:48:43;;;;;;;15.30;7.97;;;9.70;99.90;;;;;;6223248;23;20035;-89
2021/11/13 12:51:30;;;;;;;11.85;7.72;;;9.70;99.90;;;;;;6223062;23;20110;-87
2021/11/13 12:54:30;;;;;;;13.07;8.25;;;9.60;99.90;;;;;;6223709;23;20032;-89
2021/11/13 12:57:32;;;;;;;11.52;7.65;;;9.60;99.90;;;;;;6223338;23;20363;-88
2021/11/13 13:00:28;;;;;;;17.05;8.13;;;9.60;99.90;;;;;;6221939;23;20028;-87
2021/11/13 13:03:35;;;;;;;12.85;7.75;;;9.50;99.90;;;;;;6243136;23;20057;-86
2021/11/13 13:06:53;;;;;;;15.65;8.35;;;9.50;99.90;;;;;;6225256;23;20290;-88
2021/11/13 13:10:13;;;;;;;10.27;7.25;;;9.50;99.90;;;;;;6243140;23;20127;-84
2021/11/13 13:13:07;;;;;;;13.70;9.35;;;9.40;99.90;;;;;;6197788;23;20035;-87
2021/11/13 13:16:01;;;;;;;21.52;8.80;;;9.30;99.90;;;;;;6241476;23;20035;-85
2021/11/13 13:18:58;;;;;;;11.55;8.30;;;9.30;99.90;;;;;;6218068;23;20170;-90
2021/11/13 13:21:50;;;;;;;14.23;8.07;;;9.20;99.90;;;;;;6244467;23;20020;-88
2021/11/13 13:24:38;;;;;;;18.95;8.98;;;9.20;99.90;;;;;;6223425;23;20163;-87
2021/11/13 13:27:26;;;;;;;13.18;9.05;;;9.20;99.90;;;;;;6247754;22;20028;-88
2021/11/13 13:30:15;;;;;;;14.77;8.75;;;9.10;99.90;;;;;;6221653;23;20054;-85
2021/11/13 13:41:12;;;;;;;12.63;8.77;;;9.00;99.90;;;;;;6244145;23;20012;-88
2021/11/13 13:44:23;;;;;;;13.73;9.25;;;8.90;99.90;;;;;;6243491;23;20008;-86
2021/11/13 13:47:34;;;;;;;14.63;9.27;;;8.80;99.90;;;;;;6243202;23;20300;-85
2021/11/13 13:50:46;;;;;;;19.95;10.10;;;8.70;99.90;;;;;;6226394;23;20040;-87
2021/11/13 13:54:03;;;;;;;19.98;12.02;;;8.70;99.90;;;;;;6229071;23;20119;-88
2021/11/13 13:57:28;;;;;;;;;;;;;;;;;;;;;
2021/11/13 14:00:24;;;;;;;12.80;9.07;;;8.70;99.90;;;;;;6248410;23;20020;-88
2021/11/13 14:03:19;;;;;;;17.67;9.38;;;8.80;99.90;;;;;;6236136;23;20039;-87
2021/11/13 14:06:30;;;;;;;15.23;10.23;;;8.90;99.90;;;;;;6197608;23;20062;-88
2021/11/13 14:09:18;;;;;;;15.95;10.13;;;8.90;99.90;;;;;;6226796;23;20027;-88
2021/11/13 14:12:07;;;;;;;18.42;10.20;;;9.00;99.90;;;;;;6227758;23;20036;-88
2021/11/13 14:15:32;;;;;;;14.00;9.75;;;9.10;99.90;;;;;;6247778;23;20024;-89
2021/11/13 14:18:20;;;;;;;16.88;9.95;;;9.20;99.90;;;;;;6233231;23;20403;-88
2021/11/13 14:21:10;;;;;;;17.30;9.80;;;9.20;99.90;;;;;;6226239;23;20024;-88
2021/11/13 14:23:58;;;;;;;16.30;10.63;;;9.10;99.90;;;;;;6226335;23;20083;-88
2021/11/13 14:26:57;;;;;;;14.13;9.73;;;9.10;99.90;;;;;;6230644;23;20024;-88
2021/11/13 14:29:44;;;;;;;22.70;11.18;;;9.10;99.90;;;;;;6255584;23;20339;-88
2021/11/13 14:32:32;;;;;;;18.90;10.57;;;9.00;99.90;;;;;;6233277;23;20046;-88
2021/11/13 14:35:20;;;;;;;19.42;11.82;;;9.10;99.90;;;;;;6256797;23;20024;-88
2021/11/13 14:38:09;;;;;;;20.77;10.82;;;9.10;99.90;;;;;;6238217;23;20094;-86
2021/11/13 14:41:05;;;;;;;17.45;10.55;;;9.10;99.90;;;;;;6237176;23;20020;-86
2021/11/13 14:43:54;;;;;;;19.13;11.15;;;9.10;99.90;;;;;;6235549;23;20028;-85
2021/11/13 14:46:54;;;;;;;18.88;11.02;;;9.00;99.90;;;;;;6237410;23;20058;-86
2021/11/13 14:49:56;;;;;;;17.63;11.20;;;9.00;99.90;;;;;;6228691;23;20034;-86
2021/11/13 14:52:53;;;;;;;17.08;11.75;;;9.00;99.90;;;;;;6229253;23;20053;-87
2021/11/13 14:55:49;;;;;;;17.50;10.23;;;9.00;99.90;;;;;;6251383;22;20020;-87
2021/11/13 14:58:40;;;;;;;20.13;10.57;;;9.10;99.90;;;;;;6247509;22;20190;-87
2021/11/13 15:02:00;;;;;;;19.13;11.15;;;9.10;99.90;;;;;;6225739;23;20305;-90
2021/11/13 15:04:53;;;;;;;15.00;10.45;;;9.20;99.90;;;;;;6245244;23;20035;-87
2021/11/13 15:07:46;;;;;;;21.33;10.07;;;9.10;99.90;;;;;;6243252;23;20028;-87
2021/11/13 15:10:35;;;;;;;14.30;10.15;;;9.10;99.90;;;;;;6224201;23;20028;-87
2021/11/13 15:13:31;;;;;;;16.17;10.32;;;9.00;99.90;;;;;;6224624;23;20591;-89
2021/11/13 15:16:21;;;;;;;17.15;10.85;;;9.00;99.90;;;;;;6223466;23;20046;-90
2021/11/13 15:19:12;;;;;;;16.65;9.77;;;8.90;99.90;;;;;;6221577;23;20644;-87
2021/11/13 15:22:03;;;;;;;28.73;10.43;;;8.90;99.90;;;;;;6242784;23;20031;-87
2021/11/13 15:24:50;;;;;;;17.48;9.40;;;8.90;99.90;;;;;;6223885;23;20031;-87
2021/11/13 15:27:51;;;;;;;21.25;10.32;;;8.90;99.90;;;;;;6222361;23;20031;-86
2021/11/13 15:30:57;;;;;;;23.88;9.63;;;8.80;99.90;;;;;;6224304;23;20032;-87
2021/11/13 15:33:47;;;;;;;15.32;8.90;;;8.80;99.90;;;;;;6244305;23;20024;-88
2021/11/13 15:36:35;;;;;;;22.00;9.75;;;8.80;99.90;;;;;;6224902;23;20036;-86
2021/11/13 15:39:22;;;;;;;21.50;10.20;;;8.80;99.90;;;;;;6222311;23;20020;-87
2021/11/13 15:42:20;;;;;;;16.45;9.73;;;8.70;99.90;;;;;;6244915;23;20090;-88
2021/11/13 15:45:18;;;;;;;22.25;9.38;;;8.70;99.90;;;;;;6245324;23;20128;-88
2021/11/13 15:48:15;;;;;;;16.08;9.90;;;8.70;99.90;;;;;;6246490;23;20099;-87
2021/11/13 15:51:03;;;;;;;14.90;9.88;;;8.70;99.90;;;;;;6225472;23;20410;-87
2021/11/13 15:53:58;;;;;;;20.17;12.20;;;8.70;99.90;;;;;;6222152;23;20096;-90
2021/11/13 15:56:47;;;;;;;28.08;13.48;;;8.70;99.90;;;;;;6245494;23;20036;-86